createdAt,value
2022-10-21T00:00:57.721Z,7.60
2022-10-21T00:03:26.379Z,7.60
2022-10-21T00:05:53.556Z,7.60
2022-10-21T00:08:21.546Z,7.70
2022-10-21T00:10:56.346Z,7.70
2022-10-21T00:13:24.929Z,7.80
2022-10-21T00:16:02.640Z,7.80
2022-10-21T00:18:30.916Z,7.70
2022-10-21T00:21:00.818Z,7.80
2022-10-21T00:23:28.010Z,7.80
2022-10-21T00:25:59.060Z,7.60
2022-10-21T00:28:27.154Z,7.60
2022-10-21T00:30:54.338Z,7.60
2022-10-21T00:33:21.594Z,7.60
2022-10-21T00:35:53.346Z,7.60
2022-10-21T00:40:52.459Z,7.60
2022-10-21T00:43:19.508Z,7.50
2022-10-21T00:45:49.716Z,7.50
2022-10-21T00:48:29.650Z,7.40
2022-10-21T00:51:03.967Z,7.40
2022-10-21T00:53:33.429Z,7.40
2022-10-21T00:56:06.871Z,7.40
2022-10-21T00:58:35.511Z,7.40
2022-10-21T01:01:05.291Z,7.40
2022-10-21T01:03:36.684Z,7.40
2022-10-21T01:06:09.847Z,7.50
2022-10-21T01:08:37.075Z,7.50
2022-10-21T01:11:06.008Z,7.50
2022-10-21T01:13:47.604Z,7.60
2022-10-21T01:16:21.037Z,7.60
2022-10-21T01:19:10.396Z,7.60
2022-10-21T01:21:44.189Z,7.60
2022-10-21T01:24:29.772Z,7.60
2022-10-21T01:26:59.930Z,7.70
2022-10-21T01:29:54.520Z,7.70
2022-10-21T01:32:21.378Z,7.80
2022-10-21T01:35:12.383Z,7.80
2022-10-21T01:38:00.288Z,7.80
2022-10-21T01:40:51.567Z,7.60
2022-10-21T01:43:40.684Z,7.60
2022-10-21T01:46:24.887Z,7.60
2022-10-21T01:49:14.902Z,7.60
2022-10-21T01:51:42.971Z,7.70
2022-10-21T01:54:16.171Z,7.60
2022-10-21T01:56:44.427Z,7.60
2022-10-21T01:59:13.722Z,7.60
2022-10-21T02:01:41.360Z,7.50
2022-10-21T02:04:10.015Z,7.50
2022-10-21T02:06:37.033Z,7.40
2022-10-21T02:09:04.256Z,7.40
2022-10-21T02:11:34.042Z,7.40
2022-10-21T02:14:13.919Z,7.50
2022-10-21T02:16:41.724Z,7.50
2022-10-21T02:19:16.282Z,7.40
2022-10-21T02:21:45.394Z,7.40
2022-10-21T02:24:27.314Z,7.40
2022-10-21T02:26:54.826Z,7.40
2022-10-21T02:29:27.700Z,7.30
2022-10-21T02:31:54.534Z,7.40
2022-10-21T02:34:32.534Z,7.30
2022-10-21T02:37:21.464Z,7.40
2022-10-21T02:39:57.067Z,7.40
2022-10-21T02:42:28.797Z,7.30
2022-10-21T02:44:55.713Z,7.30
2022-10-21T02:47:26.169Z,7.30
2022-10-21T02:49:53.077Z,7.40
2022-10-21T02:52:20.011Z,7.40
2022-10-21T02:54:46.935Z,7.50
2022-10-21T02:57:13.802Z,7.50
2022-10-21T02:59:40.814Z,7.60
2022-10-21T03:02:07.727Z,7.50
2022-10-21T03:04:34.667Z,7.50
2022-10-21T03:07:01.630Z,7.50
2022-10-21T03:09:28.572Z,7.50
2022-10-21T03:11:55.489Z,7.50
2022-10-21T03:14:22.395Z,7.50
2022-10-21T03:16:49.444Z,7.50
2022-10-21T03:19:16.324Z,7.50
2022-10-21T03:21:43.265Z,7.50
2022-10-21T03:24:15.520Z,7.40
2022-10-21T03:26:54.672Z,7.40
2022-10-21T03:29:21.635Z,7.40
2022-10-21T03:31:48.550Z,7.30
2022-10-21T03:34:15.501Z,7.30
2022-10-21T03:36:42.525Z,7.30
2022-10-21T03:39:11.114Z,7.30
2022-10-21T03:41:38.069Z,7.40
2022-10-21T03:44:05.007Z,7.50
2022-10-21T03:46:32.124Z,7.40
2022-10-21T03:49:02.823Z,7.50
2022-10-21T03:51:31.404Z,7.50
2022-10-21T03:53:58.388Z,7.50
2022-10-21T03:56:25.352Z,7.50
2022-10-21T03:58:57.694Z,7.50
2022-10-21T04:01:25.862Z,7.40
2022-10-21T04:03:53.023Z,7.40
2022-10-21T04:06:20.003Z,7.40
2022-10-21T04:08:46.948Z,7.30
2022-10-21T04:11:13.908Z,7.30
2022-10-21T04:13:40.886Z,7.40
2022-10-21T04:16:12.775Z,7.30
2022-10-21T04:18:39.741Z,7.40
2022-10-21T04:21:06.785Z,7.40
2022-10-21T04:23:33.713Z,7.30
2022-10-21T04:26:00.739Z,7.20
2022-10-21T04:28:27.632Z,7.20
2022-10-21T04:30:54.563Z,7.20
2022-10-21T04:33:21.422Z,7.20
2022-10-21T04:35:48.395Z,7.20
2022-10-21T04:38:15.482Z,7.20
2022-10-21T04:40:42.399Z,7.20
2022-10-21T04:43:09.383Z,7.20
2022-10-21T04:45:39.940Z,7.20
2022-10-21T04:48:07.501Z,7.20
2022-10-21T04:50:35.370Z,7.20
2022-10-21T04:53:02.223Z,7.30
2022-10-21T04:55:29.272Z,7.30
2022-10-21T04:57:56.168Z,7.40
2022-10-21T05:00:23.131Z,7.30
2022-10-21T05:02:50.025Z,7.30
2022-10-21T05:05:17.064Z,7.20
2022-10-21T05:07:43.988Z,7.10
2022-10-21T05:10:10.907Z,7.10
2022-10-21T05:12:37.790Z,7.30
2022-10-21T05:15:05.054Z,7.40
2022-10-21T05:17:31.915Z,7.30
2022-10-21T05:19:58.927Z,7.30
2022-10-21T05:22:25.816Z,7.20
2022-10-21T05:24:52.727Z,7.20
2022-10-21T05:27:19.671Z,7.30
2022-10-21T05:29:46.518Z,7.30
2022-10-21T05:32:13.557Z,7.30
2022-10-21T05:34:40.448Z,7.40
2022-10-21T05:37:07.549Z,7.40
2022-10-21T05:39:34.649Z,7.40
2022-10-21T05:42:01.645Z,7.40
2022-10-21T05:44:28.607Z,7.40
2022-10-21T05:46:55.470Z,7.40
2022-10-21T05:49:22.612Z,7.20
2022-10-21T05:51:49.734Z,7.30
2022-10-21T05:54:16.725Z,7.40
2022-10-21T05:56:43.834Z,7.60
2022-10-21T05:59:11.406Z,7.70
2022-10-21T06:01:39.651Z,7.80
2022-10-21T06:04:07.113Z,7.90
2022-10-21T06:06:34.189Z,8.00
2022-10-21T06:09:01.156Z,7.90
2022-10-21T06:11:28.093Z,7.90
2022-10-21T06:13:55.331Z,8.00
2022-10-21T06:16:22.705Z,8.00
2022-10-21T06:18:49.981Z,8.10
2022-10-21T06:21:17.019Z,8.20
2022-10-21T06:23:43.934Z,8.30
2022-10-21T06:26:15.753Z,8.50
2022-10-21T06:28:44.572Z,8.60
2022-10-21T06:31:15.185Z,8.70
2022-10-21T06:33:42.377Z,8.80
2022-10-21T06:36:09.416Z,8.90
2022-10-21T06:38:37.983Z,9.10
2022-10-21T06:41:13.068Z,9.20
2022-10-21T06:43:42.039Z,9.30
2022-10-21T06:46:14.116Z,9.30
2022-10-21T06:48:44.395Z,9.30
2022-10-21T06:51:16.246Z,9.30
2022-10-21T06:53:44.322Z,9.50
2022-10-21T06:56:17.441Z,9.70
2022-10-21T06:58:49.073Z,9.80
2022-10-21T07:01:33.677Z,10.00
2022-10-21T07:04:07.602Z,10.20
2022-10-21T07:06:34.606Z,10.30
2022-10-21T07:09:01.580Z,10.40
2022-10-21T07:11:28.608Z,10.50
2022-10-21T07:13:56.061Z,10.60
2022-10-21T07:16:26.869Z,10.60
2022-10-21T07:18:55.396Z,10.60
2022-10-21T07:21:24.123Z,10.80
2022-10-21T07:23:52.417Z,11.00
2022-10-21T07:26:23.149Z,11.00
2022-10-21T07:28:51.113Z,11.10
2022-10-21T07:31:20.444Z,11.30
2022-10-21T07:33:47.881Z,11.30
2022-10-21T07:36:24.121Z,11.20
2022-10-21T07:38:52.379Z,11.40
2022-10-21T07:41:23.021Z,11.50
2022-10-21T07:43:50.771Z,11.60
2022-10-21T07:46:20.272Z,11.70
2022-10-21T07:48:47.567Z,11.70
2022-10-21T07:51:16.999Z,12.00
2022-10-21T07:53:43.964Z,12.00
2022-10-21T07:56:20.777Z,11.80
2022-10-21T07:58:48.289Z,11.80
2022-10-21T08:01:18.086Z,11.80
2022-10-21T08:03:45.917Z,12.10
2022-10-21T08:06:15.707Z,12.50
2022-10-21T08:08:44.084Z,12.90
2022-10-21T08:11:11.449Z,12.70
2022-10-21T08:13:41.562Z,12.90
2022-10-21T08:16:08.509Z,13.10
2022-10-21T08:18:35.367Z,13.30
2022-10-21T08:21:04.288Z,13.60
2022-10-21T08:23:31.510Z,13.90
2022-10-21T08:26:00.878Z,13.90
2022-10-21T08:28:29.473Z,14.20
2022-10-21T08:31:07.513Z,14.50
2022-10-21T08:33:34.798Z,14.60
2022-10-21T08:36:10.744Z,14.80
2022-10-21T08:38:37.975Z,14.80
2022-10-21T08:41:20.168Z,15.10
2022-10-21T08:43:47.135Z,15.30
2022-10-21T08:46:19.699Z,15.40
2022-10-21T08:48:52.763Z,15.50
2022-10-21T08:51:29.234Z,15.60
2022-10-21T08:54:01.581Z,15.40
2022-10-21T08:56:30.738Z,15.50
2022-10-21T08:58:57.740Z,15.70
2022-10-21T09:01:47.286Z,15.80
2022-10-21T09:04:37.686Z,15.80
2022-10-21T09:07:14.418Z,15.90
2022-10-21T09:10:01.695Z,16.10
2022-10-21T09:12:31.632Z,16.10
2022-10-21T09:15:15.367Z,16.30
2022-10-21T09:18:04.393Z,16.30
2022-10-21T09:20:54.924Z,16.20
2022-10-21T09:23:49.854Z,16.30
2022-10-21T09:26:30.432Z,16.20
2022-10-21T09:28:58.508Z,16.40
2022-10-21T09:31:25.429Z,16.20
2022-10-21T09:34:02.615Z,16.40
2022-10-21T09:36:47.730Z,16.50
2022-10-21T09:39:22.950Z,16.60
2022-10-21T09:41:59.345Z,16.70
2022-10-21T09:44:28.878Z,17.10
2022-10-21T09:46:55.882Z,17.00
2022-10-21T09:50:02.116Z,17.10
2022-10-21T09:52:28.866Z,17.00
2022-10-21T09:54:56.475Z,16.90
2022-10-21T09:57:41.070Z,17.00
2022-10-21T10:00:12.693Z,17.10
2022-10-21T10:02:44.342Z,17.40
2022-10-21T10:05:44.204Z,17.40
2022-10-21T10:08:27.058Z,17.40
2022-10-21T10:11:01.485Z,17.20
2022-10-21T10:13:30.651Z,17.30
2022-10-21T10:16:31.113Z,17.40
2022-10-21T10:19:22.432Z,17.70
2022-10-21T10:22:16.540Z,17.60
2022-10-21T10:24:44.724Z,17.80
2022-10-21T10:27:23.498Z,17.40
2022-10-21T10:29:54.609Z,17.60
2022-10-21T10:32:25.744Z,17.60
2022-10-21T10:34:57.879Z,17.70
2022-10-21T10:37:27.747Z,17.90
2022-10-21T10:39:57.918Z,17.80
2022-10-21T10:42:35.941Z,17.90
2022-10-21T10:45:06.831Z,17.70
2022-10-21T10:47:44.113Z,17.90
2022-10-21T10:50:47.018Z,18.00
2022-10-21T10:53:36.899Z,18.20
2022-10-21T10:56:20.729Z,18.10
2022-10-21T10:59:30.991Z,18.20
2022-10-21T11:02:09.027Z,18.30
2022-10-21T11:04:57.547Z,18.20
2022-10-21T11:07:24.366Z,18.80
2022-10-21T11:09:56.956Z,18.80
2022-10-21T11:12:26.519Z,18.90
2022-10-21T11:15:00.434Z,18.90
2022-10-21T11:17:41.563Z,19.10
2022-10-21T11:20:20.740Z,19.00
2022-10-21T11:23:42.593Z,18.80
2022-10-21T11:26:22.050Z,18.70
2022-10-21T11:29:20.288Z,18.70
2022-10-21T11:32:10.169Z,18.70
2022-10-21T11:34:37.028Z,18.70
2022-10-21T11:37:32.930Z,18.40
2022-10-21T11:40:27.959Z,18.50
2022-10-21T11:42:56.695Z,18.60
2022-10-21T11:45:34.749Z,18.40
2022-10-21T11:48:09.904Z,18.40
2022-10-21T11:50:45.711Z,18.50
2022-10-21T11:53:38.897Z,18.40
2022-10-21T11:56:05.792Z,18.30
2022-10-21T11:59:06.022Z,18.40
2022-10-21T12:01:56.586Z,18.50
2022-10-21T12:04:35.797Z,18.50
2022-10-21T12:07:11.600Z,18.70
2022-10-21T12:09:45.447Z,18.90
2022-10-21T12:12:18.641Z,18.90
2022-10-21T12:14:49.371Z,19.10
2022-10-21T12:17:21.452Z,19.20
2022-10-21T12:20:08.344Z,19.20
2022-10-21T12:22:36.076Z,19.30
2022-10-21T12:25:15.023Z,19.20
2022-10-21T12:27:49.330Z,19.20
2022-10-21T12:30:47.114Z,19.10
2022-10-21T12:33:35.435Z,18.80
2022-10-21T12:36:23.586Z,18.70
2022-10-21T12:38:56.042Z,18.80
2022-10-21T12:41:34.813Z,18.60
2022-10-21T12:44:01.695Z,18.60
2022-10-21T12:46:40.620Z,18.50
2022-10-21T12:49:19.980Z,18.50
2022-10-21T12:51:56.715Z,18.70
2022-10-21T12:54:30.350Z,18.70
2022-10-21T12:57:06.697Z,18.60
2022-10-21T12:59:42.437Z,18.50
2022-10-21T13:02:18.598Z,18.40
2022-10-21T13:04:48.103Z,18.40
2022-10-21T13:07:14.938Z,18.20
2022-10-21T13:09:56.728Z,18.20
2022-10-21T13:12:23.837Z,18.20
2022-10-21T13:15:02.355Z,18.30
2022-10-21T13:17:50.097Z,18.30
2022-10-21T13:20:20.103Z,18.60
2022-10-21T13:23:01.890Z,18.80
2022-10-21T13:25:34.770Z,18.90
2022-10-21T13:28:13.345Z,19.20
2022-10-21T13:30:58.644Z,19.20
2022-10-21T13:33:38.057Z,19.30
2022-10-21T13:36:14.076Z,19.10
2022-10-21T13:38:54.620Z,19.20
2022-10-21T13:41:30.183Z,19.10
2022-10-21T13:44:02.973Z,19.10
2022-10-21T13:46:43.724Z,19.10
2022-10-21T13:49:28.642Z,19.00
2022-10-21T13:51:55.667Z,19.00
2022-10-21T13:54:22.824Z,19.00
2022-10-21T13:56:49.750Z,18.90
2022-10-21T13:59:19.454Z,18.80
2022-10-21T14:01:49.601Z,18.70
2022-10-21T14:04:20.743Z,18.70
2022-10-21T14:06:53.148Z,18.60
2022-10-21T14:09:25.757Z,18.60
2022-10-21T14:11:53.853Z,18.30
2022-10-21T14:14:24.707Z,18.40
2022-10-21T14:17:03.510Z,18.30
2022-10-21T14:19:35.554Z,18.40
2022-10-21T14:22:02.823Z,18.50
2022-10-21T14:24:48.575Z,18.30
2022-10-21T14:27:23.079Z,18.30
2022-10-21T14:29:50.652Z,18.30
2022-10-21T14:32:20.734Z,18.30
2022-10-21T14:34:59.723Z,18.30
2022-10-21T14:37:26.816Z,18.30
2022-10-21T14:39:53.770Z,18.30
2022-10-21T14:42:23.186Z,18.20
2022-10-21T14:44:52.531Z,18.20
2022-10-21T14:47:24.661Z,18.10
2022-10-21T14:49:54.493Z,18.20
2022-10-21T14:52:44.510Z,18.20
2022-10-21T14:55:15.861Z,18.30
2022-10-21T14:57:55.526Z,18.20
2022-10-21T15:00:41.761Z,18.20
2022-10-21T15:03:12.745Z,18.20
2022-10-21T15:05:45.197Z,18.10
2022-10-21T15:08:20.886Z,17.90
2022-10-21T15:11:09.143Z,17.80
2022-10-21T15:13:36.172Z,17.70
2022-10-21T15:16:04.591Z,17.60
2022-10-21T15:18:36.654Z,17.50
2022-10-21T15:21:07.287Z,17.40
2022-10-21T15:23:38.722Z,17.40
2022-10-21T15:26:19.233Z,17.40
2022-10-21T15:28:46.341Z,17.30
2022-10-21T15:31:21.414Z,17.20
2022-10-21T15:33:51.769Z,17.10
2022-10-21T15:36:21.675Z,17.00
2022-10-21T15:38:48.823Z,16.90
2022-10-21T15:41:25.319Z,16.80
2022-10-21T15:44:22.484Z,16.70
2022-10-21T15:46:57.665Z,16.60
2022-10-21T15:49:32.351Z,16.60
2022-10-21T15:51:59.319Z,16.50
2022-10-21T15:54:26.312Z,16.30
2022-10-21T15:56:55.265Z,16.20
2022-10-21T15:59:24.615Z,16.20
2022-10-21T16:01:53.008Z,16.10
2022-10-21T16:04:20.173Z,16.00
2022-10-21T16:06:48.948Z,16.00
2022-10-21T16:09:28.068Z,15.90
2022-10-21T16:12:00.663Z,15.90
2022-10-21T16:14:30.115Z,15.80
2022-10-21T16:16:58.692Z,15.70
2022-10-21T16:19:25.662Z,15.60
2022-10-21T16:21:52.574Z,15.50
2022-10-21T16:24:19.619Z,15.50
2022-10-21T16:26:48.752Z,15.40
2022-10-21T16:29:23.373Z,15.40
2022-10-21T16:31:51.145Z,15.30
2022-10-21T16:34:18.222Z,15.30
2022-10-21T16:36:45.323Z,15.30
2022-10-21T16:39:22.650Z,15.30
2022-10-21T16:41:49.555Z,15.40
2022-10-21T16:44:16.511Z,15.40
2022-10-21T16:46:51.150Z,15.40
2022-10-21T16:49:25.712Z,15.40
2022-10-21T16:51:53.370Z,15.40
2022-10-21T16:54:23.238Z,15.40
2022-10-21T16:56:53.323Z,15.30
2022-10-21T16:59:22.337Z,15.30
2022-10-21T17:01:49.319Z,15.30
2022-10-21T17:04:16.467Z,15.30
2022-10-21T17:06:44.318Z,15.30
2022-10-21T17:09:11.411Z,15.30
2022-10-21T17:11:40.019Z,15.30
2022-10-21T17:14:09.551Z,15.30
2022-10-21T17:16:36.473Z,15.30
2022-10-21T17:19:03.529Z,15.30
2022-10-21T17:21:32.826Z,15.30
2022-10-21T17:24:02.259Z,15.30
2022-10-21T17:26:34.218Z,15.30
2022-10-21T17:29:01.105Z,15.20
2022-10-21T17:31:30.390Z,15.20
2022-10-21T17:33:59.983Z,15.30
2022-10-21T17:36:26.883Z,15.20
2022-10-21T17:38:54.046Z,15.20
2022-10-21T17:41:20.963Z,15.20
2022-10-21T17:43:48.418Z,15.20
2022-10-21T17:46:19.126Z,15.20
2022-10-21T17:48:50.548Z,15.30
2022-10-21T17:51:18.581Z,15.20
2022-10-21T17:53:52.558Z,15.30
2022-10-21T17:56:19.819Z,15.20
2022-10-21T17:58:51.229Z,15.20
2022-10-21T18:01:18.508Z,15.10
2022-10-21T18:03:45.534Z,15.10
2022-10-21T18:06:14.251Z,15.00
2022-10-21T18:08:41.652Z,15.00
2022-10-21T18:11:11.344Z,14.90
2022-10-21T18:13:39.278Z,15.00
2022-10-21T18:16:12.345Z,14.90
2022-10-21T18:18:39.685Z,14.80
2022-10-21T18:21:09.720Z,14.80
2022-10-21T18:23:38.149Z,14.80
2022-10-21T18:26:06.865Z,14.80
2022-10-21T18:28:34.679Z,14.80
2022-10-21T18:31:02.729Z,14.80
2022-10-21T18:33:29.958Z,14.80
2022-10-21T18:35:57.060Z,14.70
2022-10-21T18:38:23.915Z,14.80
2022-10-21T18:40:56.453Z,14.70
2022-10-21T18:43:29.037Z,14.70
2022-10-21T18:45:56.940Z,14.70
2022-10-21T18:48:24.264Z,14.70
2022-10-21T18:50:51.124Z,14.70
2022-10-21T18:53:18.102Z,14.70
2022-10-21T18:55:44.988Z,14.60
2022-10-21T18:58:12.292Z,14.60
2022-10-21T19:00:39.203Z,14.60
2022-10-21T19:03:06.241Z,14.60
2022-10-21T19:05:33.138Z,14.70
2022-10-21T19:08:00.052Z,14.70
2022-10-21T19:10:27.114Z,14.70
2022-10-21T19:12:55.047Z,14.60
2022-10-21T19:15:21.923Z,14.60
2022-10-21T19:17:48.885Z,14.60
2022-10-21T19:20:15.919Z,14.50
2022-10-21T19:22:42.905Z,14.50
2022-10-21T19:25:09.961Z,14.50
2022-10-21T19:27:36.978Z,14.50
2022-10-21T19:30:04.433Z,14.60
2022-10-21T19:32:31.328Z,14.60
2022-10-21T19:34:58.278Z,14.60
2022-10-21T19:37:25.131Z,14.50
2022-10-21T19:39:53.023Z,14.50
2022-10-21T19:42:19.971Z,14.50
2022-10-21T19:44:46.944Z,14.50
2022-10-21T19:47:13.961Z,14.50
2022-10-21T19:49:40.903Z,14.40
2022-10-21T19:52:07.854Z,14.40
2022-10-21T19:54:34.876Z,14.30
2022-10-21T19:57:01.799Z,14.20
2022-10-21T19:59:28.792Z,14.20
2022-10-21T20:01:55.697Z,14.20
2022-10-21T20:04:24.805Z,14.20
2022-10-21T20:06:51.839Z,14.10
2022-10-21T20:09:18.787Z,14.00
2022-10-21T20:11:45.730Z,14.00
2022-10-21T20:14:14.108Z,14.00
2022-10-21T20:16:42.407Z,14.00
2022-10-21T20:19:11.235Z,14.00
2022-10-21T20:21:38.219Z,14.00
2022-10-21T20:24:05.651Z,14.00
2022-10-21T20:26:32.713Z,13.90
2022-10-21T20:29:03.172Z,13.90
2022-10-21T20:31:30.806Z,13.90
2022-10-21T20:33:57.720Z,14.00
2022-10-21T20:36:27.330Z,14.00
2022-10-21T20:38:56.064Z,14.00
2022-10-21T20:41:26.507Z,14.00
2022-10-21T20:43:54.275Z,14.00
2022-10-21T20:46:23.628Z,14.00
2022-10-21T20:48:52.456Z,14.00
2022-10-21T20:51:22.336Z,14.00
2022-10-21T20:53:51.654Z,14.00
2022-10-21T20:56:19.338Z,13.90
2022-10-21T20:58:47.678Z,13.90
2022-10-21T21:01:20.795Z,13.90
2022-10-21T21:03:52.018Z,13.90
2022-10-21T21:06:19.763Z,13.90
2022-10-21T21:08:49.297Z,13.90
2022-10-21T21:11:21.248Z,13.90
2022-10-21T21:13:48.424Z,14.10
2022-10-21T21:16:18.288Z,14.10
2022-10-21T21:18:52.384Z,14.00
2022-10-21T21:21:21.170Z,14.00
2022-10-21T21:23:48.614Z,14.00
2022-10-21T21:26:15.562Z,14.00
2022-10-21T21:28:42.805Z,14.00
2022-10-21T21:31:11.027Z,13.90
2022-10-21T21:33:38.305Z,13.90
2022-10-21T21:36:06.307Z,13.90
2022-10-21T21:38:34.111Z,13.90
2022-10-21T21:41:01.603Z,13.90
2022-10-21T21:43:30.504Z,13.90
2022-10-21T21:45:58.010Z,13.90
2022-10-21T21:48:25.557Z,13.70
2022-10-21T21:50:59.564Z,13.60
2022-10-21T21:53:26.500Z,13.60
2022-10-21T21:55:53.464Z,13.50
2022-10-21T21:58:20.394Z,13.50
2022-10-21T22:00:47.417Z,13.50
2022-10-21T22:03:14.266Z,13.50
2022-10-21T22:05:41.141Z,13.50
2022-10-21T22:08:08.029Z,13.50
2022-10-21T22:10:35.768Z,13.50
2022-10-21T22:13:02.672Z,13.60
2022-10-21T22:15:46.917Z,13.60
2022-10-21T22:18:15.573Z,13.60
2022-10-21T22:20:42.562Z,13.60
2022-10-21T22:23:09.477Z,13.70
2022-10-21T22:25:36.390Z,13.60
2022-10-21T22:28:03.482Z,13.60
2022-10-21T22:30:30.458Z,13.60
2022-10-21T22:32:57.359Z,13.60
2022-10-21T22:35:24.263Z,13.60
2022-10-21T22:37:51.186Z,13.60
2022-10-21T22:40:18.117Z,13.60
2022-10-21T22:45:16.895Z,13.60
2022-10-21T22:47:43.783Z,13.50
2022-10-21T22:50:10.699Z,13.50
2022-10-21T22:52:37.897Z,13.60
2022-10-21T22:55:05.484Z,13.60
2022-10-21T22:57:32.359Z,13.60
2022-10-21T22:59:59.250Z,13.50
2022-10-21T23:02:26.125Z,13.50
2022-10-21T23:04:52.991Z,13.50
2022-10-21T23:07:19.990Z,13.60
2022-10-21T23:09:46.898Z,13.60
2022-10-21T23:12:13.929Z,13.50
2022-10-21T23:14:42.113Z,13.60
2022-10-21T23:17:09.118Z,13.60
2022-10-21T23:19:36.021Z,13.60
2022-10-21T23:22:02.921Z,13.60
2022-10-21T23:24:29.790Z,13.50
2022-10-21T23:26:59.183Z,13.50
2022-10-21T23:29:28.513Z,13.50
2022-10-21T23:31:57.334Z,13.50
2022-10-21T23:34:24.389Z,13.50
2022-10-21T23:36:51.322Z,13.50
2022-10-21T23:39:18.278Z,13.50
2022-10-21T23:41:45.687Z,13.50
2022-10-21T23:44:12.955Z,13.50
2022-10-21T23:46:39.978Z,13.40
2022-10-21T23:49:07.001Z,13.20
2022-10-21T23:51:34.067Z,13.30
2022-10-21T23:54:01.014Z,13.20
2022-10-21T23:56:27.920Z,13.10
2022-10-21T23:58:54.802Z,13.10
